createdAt,value
2022-12-01T02:18:08.992Z,101502.03
2022-12-01T02:19:24.956Z,101501.92
2022-12-01T02:20:54.251Z,101500.09
2022-12-01T02:22:19.189Z,101503.52
2022-12-01T02:23:41.217Z,101496.52
2022-12-01T02:24:54.128Z,101496.52
2022-12-01T02:26:01.161Z,101496.47
2022-12-01T02:27:11.258Z,101502.56
2022-12-01T02:28:18.151Z,101492.98
2022-12-01T02:29:34.083Z,101492.98
2022-12-01T02:30:53.111Z,101494.70
2022-12-01T02:32:19.571Z,101492.98
2022-12-01T02:33:26.556Z,101498.17
2022-12-01T02:34:48.232Z,101492.98
2022-12-01T02:36:19.558Z,101488.60
2022-12-01T02:52:31.558Z,101494.86
2022-12-01T02:53:36.018Z,101500.05
2022-12-01T02:54:41.706Z,101502.67
2022-12-01T02:55:52.104Z,101503.52
2022-12-01T02:56:56.578Z,101503.52
2022-12-01T02:58:01.116Z,101493.03
2022-12-01T02:59:13.126Z,101496.52
2022-12-01T03:00:18.585Z,101499.15
2022-12-01T03:01:28.909Z,101506.09
2022-12-01T03:03:07.803Z,101498.23
2022-12-01T03:04:33.070Z,101497.38
2022-12-01T03:05:43.238Z,101497.38
2022-12-01T03:07:12.670Z,101508.71
2022-12-01T03:08:39.337Z,101506.09
2022-12-01T03:10:10.587Z,101499.20
2022-12-01T03:11:17.665Z,101499.19
2022-12-01T03:12:33.693Z,101500.05
2022-12-01T03:13:46.568Z,101499.20
2022-12-01T03:15:09.150Z,101503.54
2022-12-01T03:16:22.280Z,101505.30
2022-12-01T03:17:29.662Z,101501.81
2022-12-01T03:18:51.740Z,101498.34
2022-12-01T03:19:59.100Z,101498.34
2022-12-01T03:21:12.132Z,101492.25
2022-12-01T03:22:56.027Z,101494.86
2022-12-01T03:23:52.653Z,101494.00
2022-12-01T03:25:15.054Z,101500.92
2022-12-01T03:26:25.112Z,101494.86
2022-12-01T03:27:32.388Z,101494.86
2022-12-01T03:28:39.618Z,101492.24
2022-12-01T03:29:47.325Z,101488.77
2022-12-01T03:31:04.423Z,101494.86
2022-12-01T03:32:20.427Z,101500.97
2022-12-01T03:33:36.314Z,101500.09
2022-12-01T03:34:43.631Z,101504.45
2022-12-01T03:36:02.147Z,101504.45
2022-12-01T03:37:15.099Z,101495.77
2022-12-01T03:38:22.287Z,101494.02
2022-12-01T03:39:29.523Z,101490.52
2022-12-01T03:40:37.089Z,101493.14
2022-12-01T03:41:44.280Z,101494.87
2022-12-01T03:42:54.493Z,101494.86
2022-12-01T03:44:09.985Z,101491.38
2022-12-01T03:45:17.229Z,101485.24
2022-12-01T03:46:26.351Z,101494.86
2022-12-01T03:47:32.595Z,101484.37
2022-12-01T03:48:39.506Z,101497.48
2022-12-01T03:49:44.609Z,101494.86
2022-12-01T03:51:03.678Z,101492.23
2022-12-01T03:52:38.067Z,101500.09
2022-12-01T03:53:57.227Z,101497.48
2022-12-01T03:55:06.936Z,101503.63
2022-12-01T03:56:13.411Z,101505.36
2022-12-01T03:57:32.339Z,101498.39
2022-12-01T04:00:14.816Z,101499.25
2022-12-01T04:01:19.367Z,101500.16
2022-12-01T04:02:23.678Z,101501.06
2022-12-01T04:03:28.088Z,101497.58
2022-12-01T04:04:32.585Z,101501.06
2022-12-01T04:05:41.432Z,101499.30
2022-12-01T04:06:50.075Z,101503.69
2022-12-01T04:07:57.026Z,101503.63
2022-12-01T04:09:02.163Z,101498.39
2022-12-01T04:10:08.388Z,101507.12
2022-12-01T04:11:12.437Z,101507.12
2022-12-01T04:12:18.227Z,101513.21
2022-12-01T04:13:23.032Z,101507.96
2022-12-01T04:14:28.719Z,101512.35
2022-12-01T04:15:34.568Z,101501.01
2022-12-01T04:16:40.726Z,101508.83
2022-12-01T04:17:48.176Z,101508.78
2022-12-01T04:18:57.443Z,101504.45
2022-12-01T04:20:04.434Z,101521.78
2022-12-01T04:21:08.946Z,101507.97
2022-12-01T04:22:13.654Z,101509.73
2022-12-01T04:23:18.671Z,101512.35
2022-12-01T04:24:25.482Z,101512.35
2022-12-01T04:25:29.415Z,101511.48
2022-12-01T04:26:36.972Z,101517.59
2022-12-01T04:27:41.381Z,101513.21
2022-12-01T04:28:45.820Z,101515.82
2022-12-01T04:29:50.300Z,101515.88
2022-12-01T04:30:57.955Z,101519.35
2022-12-01T04:32:04.508Z,101514.97
2022-12-01T04:33:10.428Z,101514.97
2022-12-01T04:34:14.384Z,101515.84
2022-12-01T04:35:19.698Z,101518.45
2022-12-01T04:36:25.335Z,101516.69
2022-12-01T04:37:29.595Z,101512.35
2022-12-01T04:38:36.778Z,101516.73
2022-12-01T04:39:40.901Z,101517.59
2022-12-01T04:40:44.941Z,101526.31
2022-12-01T04:41:49.112Z,101518.50
2022-12-01T04:42:53.161Z,101515.84
2022-12-01T04:43:57.797Z,101519.36
2022-12-01T04:45:01.788Z,101514.12
2022-12-01T04:46:06.934Z,101515.84
2022-12-01T04:47:15.470Z,101514.12
2022-12-01T04:48:20.052Z,101549.95
2022-12-01T04:49:24.110Z,101513.22
2022-12-01T04:50:28.361Z,101513.26
2022-12-01T04:51:32.721Z,101513.26
2022-12-01T04:52:38.119Z,101513.26
2022-12-01T04:53:42.491Z,101508.02
2022-12-01T04:54:46.509Z,101521.12
2022-12-01T04:55:50.596Z,101512.40
2022-12-01T04:56:54.667Z,101510.64
2022-12-01T04:57:58.701Z,101512.41
2022-12-01T04:59:02.725Z,101504.54
2022-12-01T05:00:07.883Z,101511.54
2022-12-01T05:01:14.587Z,101511.54
2022-12-01T05:02:18.830Z,101504.55
2022-12-01T05:03:22.954Z,101511.54
2022-12-01T05:04:27.020Z,101511.54
2022-12-01T05:05:31.182Z,101515.89
2022-12-01T05:06:35.303Z,101515.03
2022-12-01T05:07:39.559Z,101515.89
2022-12-01T05:08:45.166Z,101521.13
2022-12-01T05:09:49.418Z,101515.89
2022-12-01T05:10:56.087Z,101517.65
2022-12-01T05:12:00.150Z,101519.41
2022-12-01T05:13:05.926Z,101514.17
2022-12-01T05:14:10.223Z,101509.83
2022-12-01T05:15:17.464Z,101508.02
2022-12-01T05:16:27.681Z,101511.55
2022-12-01T05:17:36.943Z,101513.30
2022-12-01T05:18:39.804Z,101513.30
2022-12-01T05:19:44.114Z,101514.17
2022-12-01T05:20:48.437Z,101520.31
2022-12-01T05:21:53.424Z,101523.80
2022-12-01T05:23:05.622Z,101519.41
2022-12-01T05:24:08.403Z,101512.45
2022-12-01T05:25:12.800Z,101520.31
2022-12-01T05:26:17.178Z,101519.45
2022-12-01T05:27:21.567Z,101519.45
2022-12-01T05:28:27.189Z,101522.08
2022-12-01T05:29:31.697Z,101518.59
2022-12-01T05:30:36.058Z,101524.74
2022-12-01T05:31:40.939Z,101527.36
2022-12-01T05:32:45.323Z,101515.98
2022-12-01T05:33:49.769Z,101519.50
2022-12-01T05:34:54.204Z,101521.22
2022-12-01T05:35:58.757Z,101524.70
2022-12-01T05:37:03.447Z,101518.60
2022-12-01T05:38:08.386Z,101518.60
2022-12-01T05:39:12.563Z,101531.70
2022-12-01T05:40:16.997Z,101529.98
2022-12-01T05:41:21.690Z,101526.51
2022-12-01T05:42:26.099Z,101526.47
2022-12-01T05:43:34.674Z,101528.23
2022-12-01T05:44:39.094Z,101526.47
2022-12-01T05:45:43.330Z,101522.95
2022-12-01T05:46:47.500Z,101524.66
2022-12-01T05:47:53.208Z,101536.04
2022-12-01T05:48:57.194Z,101531.61
2022-12-01T05:50:05.463Z,101530.75
2022-12-01T05:51:12.551Z,101530.75
2022-12-01T05:52:16.611Z,101537.75
2022-12-01T05:53:20.759Z,101537.75
2022-12-01T05:54:24.898Z,101538.66
2022-12-01T05:55:29.023Z,101538.66
2022-12-01T05:56:33.187Z,101531.60
2022-12-01T05:57:37.447Z,101537.70
2022-12-01T05:58:41.881Z,101538.55
2022-12-01T05:59:45.896Z,101536.80
2022-12-01T06:00:50.081Z,101535.94
2022-12-01T06:01:54.249Z,101535.94
2022-12-01T06:02:58.715Z,101537.65
2022-12-01T06:04:03.076Z,101538.50
2022-12-01T06:05:08.185Z,101536.74
2022-12-01T06:06:12.507Z,101544.55
2022-12-01T06:07:16.666Z,101539.27
2022-12-01T06:08:20.785Z,101541.89
2022-12-01T06:09:25.175Z,101539.26
2022-12-01T06:10:29.484Z,101539.26
2022-12-01T06:11:33.488Z,101488.06
2022-12-01T06:12:38.633Z,101488.06
2022-12-01T06:13:43.072Z,101546.97
2022-12-01T06:14:47.371Z,101541.67
2022-12-01T06:15:59.121Z,101541.67
2022-12-01T06:17:03.190Z,101534.55
2022-12-01T06:18:07.286Z,101535.36
2022-12-01T06:19:11.453Z,101540.54
2022-12-01T06:20:15.541Z,101532.67
2022-12-01T06:21:19.801Z,101542.20
2022-12-01T06:22:23.850Z,101541.11
2022-12-01T06:23:30.521Z,101540.14
2022-12-01T06:24:34.097Z,101546.23
2022-12-01T06:25:40.240Z,101544.41
2022-12-01T06:33:37.363Z,101538.72
2022-12-01T06:34:41.525Z,101547.32
2022-12-01T06:35:45.824Z,101547.32
2022-12-01T06:36:53.348Z,101544.53
2022-12-01T06:37:59.639Z,101541.82
2022-12-01T06:40:44.222Z,101542.48
2022-12-01T06:41:49.727Z,101544.23
2022-12-01T06:43:06.885Z,101541.47
2022-12-01T06:45:24.484Z,101533.45
2022-12-01T06:56:57.271Z,101546.16
2022-12-01T06:58:01.839Z,101544.31
2022-12-01T06:59:06.166Z,101545.16
2022-12-01T07:00:11.696Z,101542.52
2022-12-01T07:01:17.521Z,101543.31
2022-12-01T07:02:21.807Z,101545.06
2022-12-01T07:03:26.328Z,101540.53
2022-12-01T07:04:30.878Z,101543.06
2022-12-01T07:05:36.765Z,101543.85
2022-12-01T07:06:40.912Z,101533.27
2022-12-01T07:07:48.680Z,101534.09
2022-12-01T07:08:53.774Z,101545.39
2022-12-01T07:09:58.098Z,101533.08
2022-12-01T07:11:08.731Z,101539.13
2022-12-01T07:12:16.940Z,101544.31
2022-12-01T07:13:26.640Z,101541.66
2022-12-01T07:14:34.683Z,101539.80
2022-12-01T07:15:41.327Z,101537.97
2022-12-01T07:16:55.324Z,101542.37
2022-12-01T07:18:03.280Z,101537.97
2022-12-01T07:19:09.593Z,101543.16
2022-12-01T07:20:32.077Z,101543.16
2022-12-01T07:21:40.952Z,101543.03
2022-12-01T07:50:02.955Z,101533.30
2022-12-01T08:44:12.258Z,101522.02
2022-12-01T08:45:16.292Z,101515.82
2022-12-01T08:46:20.797Z,101519.95
2022-12-01T08:47:25.205Z,101516.42
2022-12-01T08:48:29.528Z,101512.67
2022-12-01T08:49:34.063Z,101512.67
2022-12-01T08:50:38.427Z,101522.27
2022-12-01T08:51:44.346Z,101516.88
2022-12-01T08:52:55.317Z,101514.30
2022-12-01T08:53:56.910Z,101515.95
2022-12-01T08:55:04.551Z,101518.58
2022-12-01T08:56:10.845Z,101518.58
2022-12-01T08:57:16.508Z,101516.84
2022-12-01T08:58:20.553Z,101515.95
2022-12-01T08:59:25.118Z,101515.95
2022-12-01T09:00:29.405Z,101510.67
2022-12-01T09:01:33.826Z,101516.02
2022-12-01T09:02:40.831Z,101512.52
2022-12-01T09:03:45.224Z,101512.61
2022-12-01T09:04:53.566Z,101512.61
2022-12-01T09:06:03.488Z,101513.28
2022-12-01T09:07:13.632Z,101515.88
2022-12-01T09:08:18.071Z,101506.19
2022-12-01T09:09:30.888Z,101512.33
2022-12-01T09:10:35.119Z,101508.66
2022-12-01T09:11:39.956Z,101516.45
2022-12-01T09:12:46.479Z,101513.94
2022-12-01T09:13:54.602Z,101513.94
2022-12-01T09:14:56.892Z,101520.01
2022-12-01T09:16:07.131Z,101515.69
2022-12-01T09:17:14.390Z,101515.78
2022-12-01T09:18:21.009Z,101515.69
2022-12-01T09:19:25.377Z,101513.94
2022-12-01T09:20:29.820Z,101518.36
2022-12-01T09:21:35.814Z,101521.92
2022-12-01T09:22:41.819Z,101519.22
2022-12-01T09:23:46.561Z,101519.22
2022-12-01T09:25:05.691Z,101514.83
2022-12-01T09:26:13.510Z,101511.96
2022-12-01T09:27:18.466Z,101516.45
2022-12-01T09:28:27.542Z,101515.59
2022-12-01T09:29:51.381Z,101508.40
2022-12-01T09:31:00.177Z,101511.03
2022-12-01T09:33:35.319Z,101514.50
2022-12-01T09:34:39.704Z,101515.22
2022-12-01T09:35:46.357Z,101505.56
2022-12-01T09:36:52.087Z,101508.16
2022-12-01T09:37:57.718Z,101514.20
2022-12-01T09:39:02.960Z,101509.22
2022-12-01T09:40:18.271Z,101509.33
2022-12-01T09:41:26.521Z,101513.58
2022-12-01T09:42:35.375Z,101513.58
2022-12-01T09:43:46.123Z,101501.20
2022-12-01T09:44:55.377Z,101517.14
2022-12-01T09:46:10.466Z,101518.09
2022-12-01T09:47:36.108Z,101510.22
2022-12-01T09:48:47.980Z,101500.48
2022-12-01T09:55:12.012Z,101513.77
2022-12-01T09:57:53.156Z,101507.05
2022-12-01T09:59:04.452Z,101511.56
2022-12-01T09:59:50.692Z,101513.05
2022-12-01T10:00:31.485Z,101504.41
2022-12-01T10:07:46.728Z,101496.59
2022-12-01T10:09:21.914Z,101509.55
2022-12-01T10:10:32.811Z,101505.80
2022-12-01T10:11:40.109Z,101505.77
2022-12-01T10:12:47.757Z,101505.66
2022-12-01T10:13:57.219Z,101508.30
2022-12-01T10:15:39.182Z,101509.95
2022-12-01T10:16:58.408Z,101499.39
2022-12-01T10:18:09.999Z,101494.80
2022-12-01T10:19:20.274Z,101499.95
2022-12-01T10:20:30.898Z,101505.98
2022-12-01T10:21:57.229Z,101498.06
2022-12-01T10:23:10.988Z,101502.66
2022-12-01T10:24:41.834Z,101499.05
2022-12-01T10:25:58.135Z,101490.14
2022-12-01T10:27:30.773Z,101495.25
2022-12-01T10:30:27.115Z,101490.08
2022-12-01T10:34:10.308Z,101491.89
2022-12-01T10:35:27.538Z,101478.91
2022-12-01T10:36:30.330Z,101481.34
2022-12-01T10:37:36.393Z,101481.34
2022-12-01T10:38:44.504Z,101491.89
2022-12-01T10:39:58.006Z,101491.89
2022-12-01T10:41:09.442Z,101484.69
2022-12-01T10:42:16.538Z,101484.69
2022-12-01T10:43:24.808Z,101479.95
2022-12-01T10:44:35.388Z,101475.64
2022-12-01T10:45:45.483Z,101475.75
2022-12-01T10:46:57.256Z,101473.67
2022-12-01T10:48:23.335Z,101481.48
2022-12-01T10:49:45.057Z,101474.28
2022-12-01T10:50:56.458Z,101478.70
2022-12-01T10:52:00.033Z,101476.95
2022-12-01T10:53:05.397Z,101473.53
2022-12-01T10:54:12.013Z,101469.97
2022-12-01T10:55:43.327Z,101473.25
2022-12-01T10:56:47.905Z,101474.99
2022-12-01T10:57:56.522Z,101475.89
2022-12-01T10:59:04.239Z,101467.92
2022-12-01T11:00:11.041Z,101482.06
2022-12-01T11:01:32.511Z,101469.64
2022-12-01T11:02:31.626Z,101473.95
2022-12-01T11:03:37.213Z,101473.10
2022-12-01T11:04:49.159Z,101469.45
2022-12-01T11:05:58.478Z,101471.13
2022-12-01T11:07:04.477Z,101465.78
2022-12-01T11:08:12.044Z,101462.24
2022-12-01T11:09:26.152Z,101462.12
2022-12-01T11:10:30.693Z,101469.16
2022-12-01T11:11:38.062Z,101469.12
2022-12-01T11:12:48.125Z,101458.45
2022-12-01T11:13:57.492Z,101458.45
2022-12-01T11:15:02.919Z,101460.09
2022-12-01T11:16:07.968Z,101466.23
2022-12-01T11:17:43.103Z,101455.55
2022-12-01T11:18:47.424Z,101455.55
2022-12-01T11:19:53.672Z,101462.61
2022-12-01T11:21:10.085Z,101462.61
2022-12-01T11:22:23.864Z,101460.72
2022-12-01T11:26:07.187Z,101461.88
2022-12-01T11:27:27.104Z,101447.96
2022-12-01T11:28:37.713Z,100780.61
2022-12-01T11:29:49.611Z,101457.48
2022-12-01T11:31:08.617Z,101465.78
2022-12-01T11:32:32.480Z,101447.18
2022-12-01T11:33:55.828Z,101454.25
2022-12-01T11:35:07.706Z,101451.76
2022-12-01T11:36:28.557Z,101449.12
2022-12-01T11:37:42.006Z,101454.36
2022-12-01T11:38:54.400Z,101451.02
2022-12-01T11:40:00.240Z,101451.02
2022-12-01T11:41:07.861Z,101452.80
2022-12-01T11:42:23.961Z,101442.12
2022-12-01T11:43:34.240Z,101450.16
2022-12-01T11:45:53.080Z,101445.62
2022-12-01T11:47:22.109Z,101447.52
2022-12-01T11:48:15.113Z,101441.30
2022-12-01T11:49:22.628Z,101441.30
2022-12-01T11:50:30.486Z,101446.55
2022-12-01T11:51:36.241Z,101438.55
2022-12-01T11:52:51.276Z,101436.84
2022-12-01T11:54:23.071Z,101436.84
2022-12-01T11:55:32.559Z,101447.63
2022-12-01T11:56:37.139Z,101453.02
2022-12-01T11:57:47.435Z,101453.02
2022-12-01T11:59:03.996Z,101448.52
2022-12-01T12:00:19.508Z,101435.42
2022-12-01T12:01:47.684Z,101448.84
2022-12-01T12:03:20.245Z,101450.63
2022-12-01T12:04:27.456Z,101450.63
2022-12-01T12:05:40.359Z,101460.41
2022-12-01T12:07:02.862Z,101450.88
2022-12-01T12:08:15.998Z,101443.67
2022-12-01T12:09:25.524Z,101444.57
2022-12-01T12:10:47.358Z,101438.50
2022-12-01T12:12:12.333Z,101432.89
2022-12-01T12:13:34.254Z,101432.89
2022-12-01T12:15:07.272Z,101454.16
2022-12-01T12:16:38.206Z,101436.83
2022-12-01T12:18:02.048Z,101433.22
2022-12-01T12:19:11.666Z,101426.20
2022-12-01T12:20:40.080Z,101429.66
2022-12-01T12:21:53.082Z,101433.22
2022-12-01T12:23:15.464Z,101434.94
2022-12-01T12:24:22.754Z,101436.61
2022-12-01T12:25:46.502Z,101431.30
2022-12-01T12:27:10.030Z,101433.00
2022-12-01T12:28:33.520Z,101427.50
2022-12-01T12:29:57.198Z,101435.69
2022-12-01T12:31:13.056Z,101434.72
2022-12-01T12:32:37.949Z,101434.72
2022-12-01T12:34:02.795Z,101435.80
2022-12-01T12:35:25.067Z,101436.75
2022-12-01T12:36:40.405Z,101440.64
2022-12-01T12:38:11.695Z,101436.33
2022-12-01T12:39:28.400Z,101446.92
2022-12-01T12:40:38.753Z,101446.10
2022-12-01T12:42:03.163Z,101446.10
2022-12-01T12:43:37.968Z,101438.19
2022-12-01T12:44:51.786Z,101438.19
2022-12-01T12:46:05.029Z,101439.11
2022-12-01T12:47:44.044Z,101446.20
2022-12-01T12:50:12.021Z,101446.20
2022-12-01T12:51:27.911Z,101446.28
2022-12-01T12:52:38.716Z,101449.88
2022-12-01T12:54:01.228Z,101450.73
2022-12-01T12:55:12.637Z,101453.41
2022-12-01T12:56:20.007Z,101453.41
2022-12-01T12:57:42.180Z,101454.27
2022-12-01T12:59:05.747Z,101452.41
2022-12-01T13:17:54.092Z,101446.28
2022-12-01T13:19:20.885Z,101443.64
2022-12-01T13:20:28.285Z,101441.94
2022-12-01T13:21:44.647Z,101448.92
2022-12-01T13:22:50.205Z,101361.02
2022-12-01T13:23:54.964Z,101460.50
2022-12-01T13:24:59.182Z,101449.02
2022-12-01T13:26:06.333Z,101439.19
2022-12-01T13:27:16.540Z,101438.27
2022-12-01T13:28:31.497Z,101448.72
2022-12-01T13:29:43.718Z,101446.91
2022-12-01T13:30:59.127Z,101445.02
2022-12-01T13:32:04.408Z,101440.73
2022-12-01T13:33:10.529Z,101440.73
2022-12-01T13:34:41.533Z,101446.80
2022-12-01T13:35:52.948Z,101441.52
2022-12-01T13:36:55.291Z,101445.09
2022-12-01T13:38:23.596Z,101445.09
2022-12-01T13:39:30.813Z,101441.59
2022-12-01T13:40:35.286Z,101451.28
2022-12-01T13:41:40.424Z,101445.09
2022-12-01T13:42:47.689Z,101441.52
2022-12-01T13:44:00.285Z,101448.55
2022-12-01T13:45:10.375Z,101443.20
2022-12-01T13:46:33.778Z,101443.20
2022-12-01T13:47:48.527Z,101439.70
2022-12-01T13:48:56.202Z,101437.27
2022-12-01T13:50:03.469Z,101212.14
2022-12-01T13:51:07.905Z,101394.91
2022-12-01T13:52:26.687Z,101442.34
2022-12-01T13:53:36.298Z,101431.08
2022-12-01T13:54:41.938Z,101435.49
2022-12-01T13:56:01.102Z,101438.09
2022-12-01T13:57:08.338Z,101431.08
2022-12-01T13:58:15.408Z,101437.27
2022-12-01T13:59:41.916Z,101443.44
2022-12-01T14:00:46.302Z,101432.03
2022-12-01T14:01:56.875Z,101435.63
2022-12-01T14:03:22.037Z,101438.17
2022-12-01T14:04:31.093Z,101433.81
2022-12-01T14:05:43.860Z,101431.17
2022-12-01T14:06:50.198Z,101430.32
2022-12-01T14:07:55.173Z,101431.28
2022-12-01T14:09:02.043Z,101430.36
2022-12-01T14:10:21.311Z,101429.46
2022-12-01T14:11:30.398Z,101431.28
2022-12-01T14:12:35.360Z,101427.72
2022-12-01T14:14:03.760Z,101428.67
2022-12-01T14:15:25.897Z,101437.52
2022-12-01T14:16:50.620Z,101433.20
2022-12-01T14:18:03.763Z,101431.48
2022-12-01T14:19:09.485Z,101435.94
2022-12-01T14:20:22.058Z,101432.44
2022-12-01T14:21:50.403Z,101431.55
2022-12-01T14:23:11.272Z,101436.92
2022-12-01T14:24:30.330Z,101444.05
2022-12-01T14:26:46.241Z,101437.95
2022-12-01T14:27:57.916Z,101442.44
2022-12-01T14:29:05.068Z,101439.86
2022-12-01T14:30:44.275Z,101437.27
2022-12-01T14:32:03.346Z,101441.64
2022-12-01T14:33:43.680Z,101446.09
2022-12-01T14:34:53.319Z,101440.92
2022-12-01T14:36:02.816Z,101439.23
2022-12-01T14:37:22.123Z,101443.59
2022-12-01T14:38:52.670Z,101446.23
2022-12-01T14:39:42.565Z,101447.97
2022-12-01T14:40:50.104Z,101447.97
2022-12-01T14:42:06.465Z,101446.13
2022-12-01T14:43:17.150Z,101449.59
2022-12-01T14:44:55.804Z,101442.53
2022-12-01T14:46:06.232Z,101452.19
2022-12-01T14:47:30.336Z,101452.19
2022-12-01T14:48:40.279Z,101442.50
2022-12-01T14:49:53.652Z,101451.23
2022-12-01T14:51:00.876Z,101446.82
2022-12-01T14:52:12.147Z,101445.04
2022-12-01T14:53:27.972Z,101447.67
2022-12-01T14:54:50.650Z,101438.91
2022-12-01T14:56:02.259Z,101437.98
2022-12-01T14:57:12.331Z,101443.33
2022-12-01T14:58:17.340Z,101444.12
2022-12-01T14:59:27.255Z,101440.69
2022-12-01T15:00:39.038Z,101443.33
2022-12-01T15:01:45.596Z,101449.48
2022-12-01T15:03:01.845Z,101444.19
2022-12-01T15:04:09.491Z,101436.38
2022-12-01T15:05:21.665Z,101438.94
2022-12-01T15:06:32.956Z,101451.23
2022-12-01T15:07:40.992Z,101445.00
2022-12-01T15:09:10.492Z,101446.72
2022-12-01T15:10:06.288Z,101444.12
2022-12-01T15:11:22.539Z,101444.12
2022-12-01T15:12:30.028Z,101445.08
2022-12-01T15:13:52.619Z,101445.96
2022-12-01T15:14:56.868Z,101437.98
2022-12-01T15:16:06.391Z,101438.94
2022-12-01T15:17:29.956Z,101443.36
2022-12-01T15:18:37.431Z,101441.68
2022-12-01T15:19:42.388Z,101445.17
2022-12-01T15:20:48.203Z,101437.33
2022-12-01T15:21:54.375Z,101443.56
2022-12-01T15:23:01.070Z,101441.05
2022-12-01T15:24:22.899Z,101444.41
2022-12-01T15:25:31.499Z,101438.38
2022-12-01T15:26:38.930Z,101439.17
2022-12-01T15:39:36.572Z,101438.58
2022-12-01T15:41:13.233Z,101442.83
2022-12-01T15:41:49.205Z,101441.94
2022-12-01T15:43:08.505Z,101438.37
2022-12-01T15:44:30.488Z,101440.19
2022-12-01T15:47:36.683Z,101436.76
2022-12-01T15:48:41.301Z,101439.43
2022-12-01T15:49:50.526Z,101440.29
2022-12-01T15:51:06.514Z,101434.19
2022-12-01T15:52:12.861Z,101430.70
2022-12-01T15:53:26.749Z,101433.40
2022-12-01T15:54:31.333Z,101433.40
2022-12-01T15:55:42.028Z,101428.16
2022-12-01T15:56:50.842Z,101424.63
2022-12-01T15:57:56.987Z,101426.48
2022-12-01T15:59:09.716Z,101430.08
2022-12-01T16:00:22.343Z,101427.41
2022-12-01T16:01:32.770Z,101429.19
2022-12-01T16:02:38.691Z,101429.19
2022-12-01T16:04:03.886Z,101424.87
2022-12-01T16:05:11.109Z,101424.87
2022-12-01T16:06:15.747Z,101417.81
2022-12-01T16:07:20.141Z,101417.81
2022-12-01T16:08:26.852Z,101421.51
2022-12-01T16:09:44.523Z,101419.76
2022-12-01T16:11:07.957Z,101418.05
2022-12-01T16:12:22.915Z,101419.76
2022-12-01T16:13:57.159Z,101412.77
2022-12-01T16:15:04.484Z,101418.14
2022-12-01T16:16:40.241Z,101415.52
2022-12-01T16:17:50.245Z,101415.52
2022-12-01T16:19:13.816Z,101414.59
2022-12-01T16:20:29.239Z,101411.16
2022-12-01T16:21:36.531Z,101412.97
2022-12-01T16:22:47.697Z,101413.86
2022-12-01T16:24:00.287Z,101413.86
2022-12-01T16:25:17.047Z,101412.16
2022-12-01T16:26:21.195Z,101409.52
2022-12-01T16:27:28.414Z,101414.78
2022-12-01T16:28:36.248Z,101408.66
2022-12-01T16:30:04.502Z,101406.84
2022-12-01T16:31:15.085Z,101407.80
2022-12-01T16:32:24.780Z,101406.05
2022-12-01T16:33:31.683Z,101405.23
2022-12-01T16:34:56.780Z,101410.47
2022-12-01T16:40:57.310Z,101393.80
2022-12-01T16:42:17.213Z,101400.78
2022-12-01T16:43:24.661Z,101400.02
2022-12-01T16:44:29.194Z,101400.13
2022-12-01T16:45:37.001Z,101391.27
2022-12-01T16:46:47.134Z,101396.53
2022-12-01T16:48:09.249Z,101396.47
2022-12-01T16:49:09.169Z,101402.59
2022-12-01T16:50:15.427Z,101399.95
2022-12-01T16:51:54.187Z,101399.07
2022-12-01T16:52:44.521Z,101397.33
2022-12-01T16:53:51.020Z,101402.59
2022-12-01T16:55:01.768Z,101398.21
2022-12-01T16:56:07.885Z,101396.36
2022-12-01T16:57:16.422Z,101394.66
2022-12-01T16:58:26.653Z,101396.47
2022-12-01T16:59:34.401Z,101396.53
2022-12-01T17:00:47.002Z,101394.75
2022-12-01T17:02:02.308Z,101401.84
2022-12-01T17:03:18.501Z,101394.95
2022-12-01T17:04:32.929Z,101393.99
2022-12-01T17:06:02.030Z,101390.53
2022-12-01T17:07:06.661Z,101396.80
2022-12-01T17:09:50.845Z,101388.98
2022-12-01T17:11:15.645Z,101399.53
2022-12-01T17:16:52.817Z,101395.31
2022-12-01T20:23:53.301Z,101402.67
2022-12-01T20:56:21.991Z,101402.20
2022-12-01T20:57:34.444Z,101405.71
2022-12-01T20:59:00.539Z,101409.95
2022-12-01T21:00:34.786Z,101408.19
2022-12-01T21:02:49.132Z,101412.48
2022-12-01T21:03:58.034Z,101412.48
2022-12-01T21:05:05.523Z,101416.91
2022-12-01T21:06:18.515Z,101414.25
2022-12-01T21:07:34.002Z,101415.89
2022-12-01T21:08:36.126Z,101420.34
2022-12-01T21:13:05.103Z,101413.27
2022-12-01T21:14:41.168Z,101421.05
2022-12-01T21:18:10.703Z,101415.55
2022-12-01T21:19:24.903Z,101410.69
2022-12-01T21:20:36.232Z,101413.23
2022-12-01T21:21:42.113Z,101414.13
2022-12-01T21:22:56.740Z,101414.13
2022-12-01T21:24:03.942Z,101414.08
2022-12-01T21:25:17.210Z,101414.08
2022-12-01T21:27:19.305Z,101414.13
2022-12-01T21:28:30.045Z,101408.86
2022-12-01T21:29:49.667Z,101408.86
2022-12-01T21:31:16.890Z,101412.33
2022-12-01T21:32:37.772Z,101409.75
2022-12-01T21:33:44.745Z,101403.61
2022-12-01T21:34:51.638Z,101411.55
2022-12-01T21:35:56.802Z,101415.95
2022-12-01T21:37:04.583Z,101418.50
2022-12-01T21:38:11.794Z,101407.98
2022-12-01T21:39:19.759Z,101412.41
2022-12-01T21:40:26.576Z,101412.33
2022-12-01T21:41:31.716Z,101416.75
2022-12-01T21:42:37.650Z,101414.95
2022-12-01T21:43:42.105Z,101417.66
2022-12-01T21:44:49.716Z,101416.75
2022-12-01T21:45:57.541Z,101412.33
2022-12-01T21:47:04.704Z,101419.25
2022-12-01T21:48:17.763Z,101419.25
2022-12-01T21:49:24.480Z,101416.57
2022-12-01T21:50:29.011Z,101416.57
2022-12-01T21:51:34.966Z,101409.58
2022-12-01T21:52:43.175Z,101409.58
2022-12-01T21:53:52.568Z,101413.19
2022-12-01T21:55:03.274Z,101406.94
2022-12-01T21:56:10.515Z,101407.80
2022-12-01T21:57:45.872Z,101413.06
2022-12-01T22:13:17.165Z,101410.87
2022-12-01T22:14:37.325Z,101406.45
2022-12-01T22:31:34.322Z,101395.27
2022-12-01T22:32:04.668Z,101390.93
2022-12-01T22:33:00.711Z,101395.27
2022-12-01T22:34:07.237Z,101388.17
2022-12-01T22:35:16.271Z,101381.95
2022-12-01T22:39:43.607Z,101387.91
2022-12-01T22:41:16.728Z,101382.58
2022-12-01T22:42:34.467Z,101380.00
2022-12-01T22:43:52.120Z,101377.31
